Huvudsida
METAR-TAF:

METAR-TAF

Flygplatser :

Dayrestan Airport

Qeshm, Iran

latitud: 26-45-18N, longitud: 055-54-08E, höjd: 12 m

Aktuellt väderrapport

Denna rapport gjordes för 25 minuter sedan, klockan 06:00 UTC
Vind 18 kt från sydost
Temperatur 25°C
Fuktighet 83%
Tryck 1019 hPa
Sikt: 5000 m
Få moln på en höjd av 3000 ft
fuktdis

METAR: OIKQ 220600Z 13018KT 5000 BR FEW030 25/22 Q1019 TEMPO 13024KT

Tid: 09:55 (06:25 UTC)


TAF: saknas

Aktuella väderrapporter och prognoser från 4000 flygplatser (METAR- och TAF-rapporter).

De tillgängliga stationerna syns som gula och röda prickar på kartan.

För musen över prickarna för att se namnen på stationerna.

Klicka sedan för att få väderrapporter och prognoser.

För att ändra kartan: Klicka på de gröna knapparna med ett svart kors på för att zooma in; den gröna knappen med ett streck på för att zooma ut; eller på de gröna pilarna för angränsande kartor.


METAR-TAF: